默认 日期 大小 文件数 浏览量 最新下载 xml
h r m磁力链接相关资源由用户搜索指令自动获取,结果来源于网络,本站不存储任何资料,亦不承担任何责任,请于24小时内删除,搜索到534个磁力,用时17ms。
    ... -DPS]���M�ܷR�g�зm� ... ܥL�H��� ... k�H�ñj ... �����R(by ...
创建时间: 2022-07-02 11:42:22 大小:1.42 GB 文件数量:5 热度:7 最近下载:2025-03-16 14:50:05
    {"cover.jpg": 76401, "02-alex_m.o.r.p.h._and_jerome_isma-ae-bang_(radio_edit).mp3": 8918780, "01-alex_m.o.r.p.h._and_jerome_isma-ae-bang_(original_mix).mp3": 16994801}
创建时间: 2022-07-03 20:07:27 大小:24.79 MB 文件数量:3 热度:5 最近下载:2025-02-28 00:10:02
    ... Live @ HeavensGate": {"Alex M.O.R.P.H. - Universal Nation 366 ( ... .mp3": 144489767, "Alex M.O.R.P.H. - Universal Nation 366 ... - Progressive Special": {"Alex M.O.R.P.H. - Universal Nation 335 ... Deep Progressive Special": {"Alex M.O.R.P.H. - Universal Nation 365 ...
创建时间: 2022-07-11 23:51:16 大小:9.42 GB 文件数量:139 热度:6 最近下载:2025-03-02 14:57:03
    ... , "???? vol.52 ??? �RH???? �_?�¦m.avi": 1919830732, "_____padding_file_0_ ... �P)0.85�ΥH�W��� ... �P)0.85�ΥH�W��� ... �P)0.85�ΥH�W��� ...
创建时间: 2022-07-25 05:09:11 大小:1.79 GB 文件数量:7 热度:7 最近下载:2025-06-24 02:21:01
    ... }, "�̷s�ѵM���H???�G??????????�k ...
创建时间: 2022-07-26 20:08:29 大小:825.05 MB 文件数量:93 热度:10 最近下载:2025-10-07 11:45:01
    ... ��]���H�f�f� ... ���R�ШӰ��M��� ...
创建时间: 2022-07-27 18:13:43 大小:1.5 GB 文件数量:5 热度:7 最近下载:2025-02-07 05:54:05
    ... , "�k�H���̷R-�M��� ... �P)0.85�ΥH�W��� ... �P)0.85�ΥH�W��� ... �P)0.85�ΥH�W��� ... �P)0.85�ΥH�W��� ...
创建时间: 2022-08-01 07:46:04 大小:78.25 MB 文件数量:10 热度:4 最近下载:2025-01-03 01:38:04
创建时间: 2022-08-01 18:41:55 大小:760.55 MB 文件数量:3 热度:10 最近下载:2025-09-12 10:56:12
创建时间: 2022-08-04 22:20:52 大小:957.11 MB 文件数量:4 热度:13 最近下载:2025-09-17 12:17:10
    {"TWA - Amor - Hard Kitchen - HD.wmv": 281409780, "TWA - Amor - Hard Kitchen - HD.wmv.jpg": 241205}
创建时间: 2022-08-05 23:48:13 大小:268.6 MB 文件数量:2 热度:15 最近下载:2025-09-30 11:23:02
    ... ��.txt": 227, "(h.m.p)�R�A~�� ...
创建时间: 2022-08-06 06:39:33 大小:985.85 MB 文件数量:8 热度:8 最近下载:2025-10-10 19:32:02
    ... Tyler Sherritt - Petrichord (Alex M.O.R.P.H. Remix).mp3": 18480521, ... Temptation - Sinead (Alex M.O.R.P.H. Extended Vocal).mp3": 17054679 ... Alex M.O.R.P.H. - In Circles (Alex M.O.R.P.H. Remix ... Temptation - Sinead (Alex M.O.R.P.H. Extended Instrumental Mix).mp3 ...
创建时间: 2022-08-06 23:38:08 大小:1.93 GB 文件数量:122 热度:6 最近下载:2025-01-10 16:20:02
    ... �P)0.85�ΥH�W��� ... �P)0.85�ΥH�W��� ... �P)0.85�ΥH�W��� ... �P)0.85�ΥH�W��� ... �P)0.85�ΥH�W��� ... �P)0.85�ΥH�W��� ... �P)0.85�ΥH�W��� ... �P)0.85�ΥH�W��� ...
创建时间: 2022-08-20 06:22:32 大小:3.74 GB 文件数量:17 热度:6 最近下载:2025-01-04 12:26:09
    {"���M���H.jpg": 413128, "vivapower@MCY� ... , "���M���H�Q?�ۦv ... ??�J?????SEX�H(����� ... r��).rmvb": 479934997, "_____padding_file_0_ ... �P)0.85�ΥH�W��� ... �P)0.85�ΥH�W��� ... �P)0.85�ΥH�W��� ...
创建时间: 2022-08-21 19:41:38 大小:459.2 MB 文件数量:7 热度:6 最近下载:2025-01-26 01:40:02
    {"Alex M.O.R.P.H. - Vandit Knights (21.07.2011).mp3": 140493006, "Linnea Schossow - Vandit Knights (21.07.2011).mp3": 137190863}
创建时间: 2022-08-25 23:51:22 大小:264.82 MB 文件数量:2 热度:11 最近下载:2025-09-25 12:25:01
    ... .txt": 20, "[V&R]���H���� ... ��ǿǫ�ј� �m�нs.avi": 1426153472 ...
创建时间: 2022-08-26 06:56:51 大小:1.33 GB 文件数量:6 热度:6 最近下载:2025-02-23 04:49:03
    ... , "�k�H���̷R-�M��� ... �P)0.85�ΥH�W��� ... �P)0.85�ΥH�W��� ... �P)0.85�ΥH�W��� ... �P)0.85�ΥH�W��� ...
创建时间: 2022-08-30 05:50:41 大小:150.25 MB 文件数量:10 热度:4 最近下载:2025-01-11 11:48:04
    ... .com.url": 247, "caoqun@P.R���~�Ѽֳ� ... T���@�Hh��).url": 278 ... ���k�H����� ... k�H�A�q� ... �G���R��,�귽� ...
创建时间: 2022-09-22 06:48:43 大小:918.66 MB 文件数量:94 热度:4 最近下载:2025-01-11 04:21:07
    {"Snap01.jpg": 199348, "Snap02.jpg": 89303, "��������@38.100.22.211 bbss@(H.m.p)ǰ�����i4�r�g BEST VOL.2.rmvb": 1149495890}
创建时间: 2022-09-23 08:00:33 大小:1.07 GB 文件数量:3 热度:5 最近下载:2025-02-24 06:39:03
    ... �P)0.85�ΥH�W��� ... �P)0.85�ΥH�W��� ... �P)0.85�ΥH�W��� ... �P)0.85�ΥH�W��� ... P)0.85�ΥH�W��� ... P)0.85�ΥH�W��� ... P)0.85�ΥH�W��� ... P)0.85�ΥH�W��� ... P)0.85�ΥH�W��� ... P)0.85�ΥH�W��� ... P)0.85�ΥH�W��� ... P)0.85�ΥH�W��� ... P)0.85�ΥH�W��� ... P)0.85�ΥH�W��� ... P)0.85�ΥH�W��� ... P)0.85�ΥH�W��� ... P)0.85�ΥH�W��� ... P)0.85�ΥH�W��� ...
创建时间: 2022-09-25 18:27:08 大小:104.06 MB 文件数量:409 热度:5 最近下载:2025-02-24 03:30:02